createdAt,value
2018-08-24T00:02:21.366Z,99402.77
2018-08-24T00:07:25.306Z,99401.41
2018-08-24T00:12:29.122Z,99406.83
2018-08-24T00:17:32.878Z,99396.82
2018-08-24T00:22:36.628Z,99394.41
2018-08-24T00:27:40.432Z,99382.55
2018-08-24T00:32:44.173Z,99386.05
2018-08-24T00:37:47.979Z,99383.30
2018-08-24T00:42:51.832Z,99379.28
2018-08-24T00:47:55.603Z,99385.66
2018-08-24T00:52:59.372Z,99379.34
2018-08-24T00:58:03.229Z,99368.33
2018-08-24T01:03:07.062Z,99370.19
2018-08-24T01:08:10.817Z,99368.97
2018-08-24T01:13:15.080Z,99356.94
2018-08-24T01:18:20.694Z,99356.55
2018-08-24T01:23:25.856Z,99354.90
2018-08-24T01:28:30.481Z,99349.98
2018-08-24T01:33:34.431Z,99351.13
2018-08-24T01:38:38.198Z,99356.70
2018-08-24T01:43:42.019Z,99353.66
2018-08-24T01:48:45.754Z,99347.23
2018-08-24T01:53:49.544Z,99339.10
2018-08-24T01:58:53.407Z,99342.82
2018-08-24T02:03:57.125Z,99345.48
2018-08-24T02:09:00.965Z,99344.98
2018-08-24T02:14:09.986Z,99342.27
2018-08-24T02:19:15.124Z,99337.19
2018-08-24T02:24:18.954Z,99331.59
2018-08-24T02:29:22.686Z,99317.20
2018-08-24T02:34:26.481Z,99321.38
2018-08-24T02:39:30.274Z,99318.28
2018-08-24T02:44:34.011Z,99312.26
2018-08-24T02:49:37.792Z,99319.21
2018-08-24T02:54:41.620Z,99322.45
2018-08-24T02:59:45.669Z,99327.28
2018-08-24T03:04:49.433Z,99329.16
2018-08-24T03:09:53.314Z,99331.56
2018-08-24T03:14:57.058Z,99335.03
2018-08-24T03:20:00.840Z,99345.51
2018-08-24T03:25:04.703Z,99347.91
2018-08-24T03:30:08.533Z,99340.39
2018-08-24T03:35:12.283Z,99338.63
2018-08-24T03:40:16.154Z,99349.03
2018-08-24T03:45:19.957Z,99355.89
2018-08-24T03:50:23.664Z,99368.32
2018-08-24T03:55:27.399Z,99367.72
2018-08-24T04:00:31.157Z,99368.86
2018-08-24T04:05:35.010Z,99363.04
2018-08-24T04:10:38.966Z,99393.36
2018-08-24T04:15:42.928Z,99390.94
2018-08-24T04:20:46.699Z,99356.89
2018-08-24T04:25:50.549Z,99371.38
2018-08-24T04:30:54.287Z,99381.73
2018-08-24T04:35:58.100Z,99383.83
2018-08-24T04:41:01.860Z,99387.97
2018-08-24T04:46:05.662Z,99396.37
2018-08-24T04:51:09.399Z,99406.98
2018-08-24T04:56:13.243Z,99396.90
2018-08-24T05:01:16.947Z,99399.37
2018-08-24T05:06:20.703Z,99404.98
2018-08-24T05:11:24.475Z,99411.04
2018-08-24T05:16:28.284Z,99420.16
2018-08-24T05:21:32.093Z,99420.40
2018-08-24T05:26:35.862Z,99425.06
2018-08-24T05:31:39.593Z,99426.61
2018-08-24T05:36:43.341Z,99435.90
2018-08-24T05:41:47.091Z,99452.64
2018-08-24T05:46:50.877Z,99436.59
2018-08-24T05:51:54.630Z,99450.25
2018-08-24T05:56:58.337Z,99435.13
2018-08-24T06:02:02.115Z,99462.09
2018-08-24T06:07:05.917Z,99468.69
2018-08-24T06:12:09.689Z,99468.50
2018-08-24T06:17:18.665Z,99467.33
2018-08-24T06:22:22.399Z,99468.47
2018-08-24T06:27:26.213Z,99466.85
2018-08-24T06:32:29.962Z,99484.35
2018-08-24T06:37:33.759Z,99479.38
2018-08-24T06:42:37.531Z,99469.05
2018-08-24T06:47:41.367Z,99478.88
2018-08-24T06:52:45.069Z,99459.76
2018-08-24T06:57:48.842Z,99472.39
2018-08-24T07:02:52.863Z,99472.00
2018-08-24T07:07:56.677Z,99474.38
2018-08-24T07:13:00.530Z,99461.67
2018-08-24T07:18:04.449Z,99465.05
2018-08-24T07:23:08.281Z,99469.63
2018-08-24T07:28:12.099Z,99484.38
2018-08-24T07:33:15.939Z,99489.69
2018-08-24T07:38:19.717Z,99484.35
2018-08-24T07:43:23.612Z,99478.41
2018-08-24T07:48:27.371Z,99482.27
2018-08-24T07:53:31.139Z,99497.28
2018-08-24T07:58:35.090Z,99497.23
2018-08-24T08:03:38.833Z,99492.53
2018-08-24T08:08:45.582Z,99493.89
2018-08-24T08:13:49.391Z,99493.03
2018-08-24T08:18:53.184Z,99494.38
2018-08-24T08:23:56.968Z,99503.08
2018-08-24T08:29:00.786Z,99503.08
2018-08-24T08:34:04.681Z,99502.02
2018-08-24T08:39:10.448Z,99501.98
2018-08-24T08:44:15.113Z,99510.37
2018-08-24T08:49:18.952Z,99512.52
2018-08-24T08:54:22.683Z,99507.57
2018-08-24T08:59:26.507Z,99512.77
2018-08-24T09:04:30.261Z,99523.87
2018-08-24T09:09:34.016Z,99526.77
2018-08-24T09:14:37.772Z,99524.72
2018-08-24T09:19:46.643Z,99533.19
2018-08-24T09:24:55.683Z,99538.09
2018-08-24T09:30:03.199Z,99534.89
2018-08-24T09:35:06.943Z,99532.36
2018-08-24T09:40:10.693Z,99526.59
2018-08-24T09:45:14.437Z,99521.13
2018-08-24T09:50:23.364Z,99513.44
2018-08-24T09:55:31.195Z,99517.29
2018-08-24T10:00:40.086Z,99510.69
2018-08-24T10:05:49.110Z,99510.19
2018-08-24T10:10:53.004Z,99513.67
2018-08-24T10:15:56.726Z,99511.91
2018-08-24T10:21:00.479Z,99512.61
2018-08-24T10:26:04.207Z,99506.14
2018-08-24T10:31:07.957Z,99504.00
2018-08-24T10:36:11.740Z,99506.58
2018-08-24T10:41:15.450Z,99495.86
2018-08-24T10:46:19.726Z,99506.84
2018-08-24T10:51:23.520Z,99533.89
2018-08-24T10:56:33.684Z,99540.23
2018-08-24T11:01:37.266Z,99544.20
2018-08-24T11:06:40.918Z,99547.95
2018-08-24T11:11:44.560Z,99540.91
2018-08-24T11:16:48.173Z,99545.52
2018-08-24T11:21:51.857Z,99545.74
2018-08-24T11:26:56.889Z,99541.02
2018-08-24T11:32:00.423Z,99541.25
2018-08-24T11:37:04.196Z,99540.94
2018-08-24T11:42:07.882Z,99545.06
2018-08-24T11:47:14.505Z,99546.33
2018-08-24T11:52:18.887Z,99537.20
2018-08-24T11:57:22.639Z,99536.30
2018-08-24T12:02:26.387Z,99527.80
2018-08-24T12:07:30.020Z,99515.55
2018-08-24T12:12:33.937Z,99526.84
2018-08-24T12:17:38.375Z,99515.41
2018-08-24T12:22:41.939Z,99511.30
2018-08-24T12:27:45.571Z,99509.69
2018-08-24T12:32:49.553Z,99501.27
2018-08-24T12:37:53.387Z,99499.25
2018-08-24T12:42:57.050Z,99503.05
2018-08-24T12:48:00.733Z,99505.63
2018-08-24T12:53:04.452Z,99495.89
2018-08-24T12:58:08.106Z,99489.47
2018-08-24T13:03:11.875Z,99496.42
2018-08-24T13:08:16.758Z,99489.86
2018-08-24T13:13:21.310Z,99503.06
2018-08-24T13:18:25.504Z,99519.36
2018-08-24T13:23:29.206Z,99538.70
2018-08-24T13:28:32.837Z,99560.02
2018-08-24T13:33:36.725Z,99555.16
2018-08-24T13:38:40.554Z,99566.37
2018-08-24T13:43:44.568Z,99578.36
2018-08-24T13:48:49.103Z,99577.35
2018-08-24T13:53:52.755Z,99569.38
2018-08-24T13:58:56.503Z,99577.86
2018-08-24T14:04:00.150Z,99571.93
2018-08-24T14:09:04.010Z,99572.11
2018-08-24T14:14:07.709Z,99570.47
2018-08-24T14:19:11.580Z,99566.11
2018-08-24T14:24:15.239Z,99568.49
2018-08-24T14:29:18.940Z,99570.70
2018-08-24T14:34:22.530Z,99575.11
2018-08-24T14:39:26.126Z,99567.98
2018-08-24T14:44:29.804Z,99564.64
2018-08-24T14:49:33.428Z,99580.41
2018-08-24T14:54:37.255Z,99578.03
2018-08-24T14:59:40.867Z,99580.59
2018-08-24T15:04:44.541Z,99579.92
2018-08-24T15:09:48.460Z,99586.22
2018-08-24T15:14:52.227Z,99580.80
2018-08-24T15:19:55.908Z,99586.57
2018-08-24T15:24:59.951Z,99590.77
2018-08-24T15:30:04.375Z,99574.48
2018-08-24T15:35:08.617Z,99587.26
2018-08-24T15:40:12.290Z,99597.25
2018-08-24T15:45:16.015Z,99595.58
2018-08-24T15:50:19.828Z,99584.59
2018-08-24T15:55:24.076Z,99586.48
2018-08-24T16:00:27.823Z,99586.19
2018-08-24T16:05:31.489Z,99595.86
2018-08-24T16:10:35.153Z,99592.51
2018-08-24T16:15:38.917Z,99603.08
2018-08-24T16:20:42.921Z,99602.28
2018-08-24T16:25:47.215Z,99601.61
2018-08-24T16:30:51.002Z,99590.22
2018-08-24T16:35:54.606Z,99597.11
2018-08-24T16:40:58.215Z,99595.97
2018-08-24T16:46:02.034Z,99600.62
2018-08-24T16:51:05.719Z,99598.80
2018-08-24T16:56:09.320Z,99595.74
2018-08-24T17:01:13.055Z,99604.48
2018-08-24T17:06:16.675Z,99611.91
2018-08-24T17:11:20.246Z,99625.23
2018-08-24T17:16:23.816Z,99620.22
2018-08-24T17:21:27.419Z,99619.55
2018-08-24T17:26:31.049Z,99626.16
2018-08-24T17:31:34.650Z,99627.81
2018-08-24T17:36:38.355Z,99616.88
2018-08-24T17:41:42.096Z,99619.77
2018-08-24T17:46:45.605Z,99627.89
2018-08-24T17:51:49.293Z,99637.23
2018-08-24T17:56:52.920Z,99648.84
2018-08-24T18:01:56.610Z,99660.00
2018-08-24T18:07:00.246Z,99669.11
2018-08-24T18:12:03.981Z,99690.14
2018-08-24T18:17:07.925Z,99698.60
2018-08-24T18:22:11.777Z,99695.84
2018-08-24T18:27:15.710Z,99688.14
2018-08-24T18:32:19.475Z,99684.25
2018-08-24T18:37:23.428Z,99686.72
2018-08-24T18:42:27.266Z,99688.02
2018-08-24T18:47:31.356Z,99691.22
2018-08-24T18:52:35.080Z,99693.95
2018-08-24T18:57:39.135Z,99705.89
2018-08-24T19:02:43.053Z,99711.41
2018-08-24T19:07:47.012Z,99716.16
2018-08-24T19:12:51.173Z,99711.87
2018-08-24T19:18:00.510Z,99718.27
2018-08-24T19:23:04.925Z,99713.80
2018-08-24T19:28:13.999Z,99720.59
2018-08-24T19:33:17.895Z,99726.83
2018-08-24T19:43:37.639Z,99727.53
2018-08-24T19:48:46.551Z,99723.03
2018-08-24T19:53:50.272Z,99722.58
2018-08-24T19:58:59.028Z,99723.38
2018-08-24T20:04:03.435Z,99714.32
2018-08-24T20:09:14.990Z,99730.58
2018-08-24T20:14:24.238Z,99716.31
2018-08-24T20:19:28.768Z,99704.19
2018-08-24T20:24:32.564Z,99715.17
2018-08-24T20:29:36.176Z,99695.95
2018-08-24T20:34:39.910Z,99694.13
2018-08-24T20:39:43.703Z,99690.09
2018-08-24T20:44:47.437Z,99692.09
2018-08-24T20:49:51.114Z,99691.81
2018-08-24T20:54:54.639Z,99689.98
2018-08-24T20:59:58.246Z,99692.98
2018-08-24T21:05:02.008Z,99704.65
2018-08-24T21:10:05.947Z,99706.25
2018-08-24T21:15:09.606Z,99711.01
2018-08-24T21:20:13.283Z,99728.42
2018-08-24T21:25:16.881Z,99731.72
2018-08-24T21:30:20.587Z,99732.03
2018-08-24T21:35:24.111Z,99730.58
2018-08-24T21:40:27.741Z,99726.70
2018-08-24T21:45:31.460Z,99730.50
2018-08-24T21:50:35.100Z,99726.13
2018-08-24T21:55:38.750Z,99721.73
2018-08-24T22:00:43.359Z,99718.41
2018-08-24T22:05:46.957Z,99720.92
2018-08-24T22:10:50.562Z,99717.85
2018-08-24T22:15:54.207Z,99725.38
2018-08-24T22:20:57.816Z,99724.52
2018-08-24T22:26:01.451Z,99712.98
2018-08-24T22:31:05.416Z,99714.41
2018-08-24T22:36:09.075Z,99712.77
2018-08-24T22:41:12.807Z,99714.46
2018-08-24T22:46:17.153Z,99702.36
2018-08-24T22:51:20.896Z,99685.84
2018-08-24T22:56:24.579Z,99695.39
2018-08-24T23:01:28.312Z,99706.38
2018-08-24T23:06:31.870Z,99693.61
2018-08-24T23:11:35.462Z,99675.84
2018-08-24T23:16:39.157Z,99669.30
2018-08-24T23:21:42.781Z,99669.42
2018-08-24T23:26:46.398Z,99673.21
2018-08-24T23:31:50.244Z,99667.14
2018-08-24T23:36:53.963Z,99661.88
2018-08-24T23:41:57.596Z,99665.87
2018-08-24T23:47:01.825Z,99658.83
2018-08-24T23:52:05.644Z,99656.19
2018-08-24T23:57:09.320Z,99661.30
